createdAt,value
2023-04-09T00:01:15.625Z,100734.24
2023-04-09T00:03:45.145Z,100730.45
2023-04-09T00:06:13.882Z,100733.75
2023-04-09T00:08:41.980Z,100736.85
2023-04-09T00:11:12.194Z,100738.20
2023-04-09T00:13:41.109Z,100737.24
2023-04-09T00:16:10.220Z,100735.71
2023-04-09T00:18:38.837Z,100731.43
2023-04-09T00:21:08.940Z,100731.75
2023-04-09T00:23:38.558Z,100731.67
2023-04-09T00:26:07.042Z,100728.77
2023-04-09T00:28:36.311Z,100731.38
2023-04-09T00:31:04.562Z,100731.58
2023-04-09T00:33:33.404Z,100731.41
2023-04-09T00:36:02.328Z,100730.97
2023-04-09T00:38:30.928Z,100733.39
2023-04-09T00:40:59.874Z,100732.16
2023-04-09T00:43:28.121Z,100732.55
2023-04-09T00:45:56.296Z,100728.83
2023-04-09T00:48:27.792Z,100733.30
2023-04-09T00:50:56.248Z,100738.15
2023-04-09T00:53:25.091Z,100743.13
2023-04-09T00:55:54.299Z,100748.61
2023-04-09T00:58:32.889Z,100745.11
2023-04-09T01:01:01.427Z,100744.52
2023-04-09T01:03:32.385Z,100741.39
2023-04-09T01:06:16.376Z,100743.18
2023-04-09T01:09:12.784Z,100744.97
2023-04-09T01:11:56.945Z,100742.86
2023-04-09T01:14:33.042Z,100741.92
2023-04-09T01:17:20.041Z,100742.94
2023-04-09T01:20:17.451Z,100745.13
2023-04-09T01:22:48.723Z,100750.12
2023-04-09T01:25:55.980Z,100750.29
2023-04-09T01:28:34.302Z,100751.52
2023-04-09T01:31:14.150Z,100750.39
2023-04-09T01:33:42.324Z,100755.47
2023-04-09T01:36:11.067Z,100759.57
2023-04-09T01:38:41.542Z,100762.90
2023-04-09T01:41:12.799Z,100763.75
2023-04-09T01:43:40.945Z,100766.15
2023-04-09T01:46:09.208Z,100761.08
2023-04-09T01:48:37.857Z,100760.36
2023-04-09T01:51:06.505Z,100757.05
2023-04-09T01:53:34.645Z,100759.96
2023-04-09T01:56:04.589Z,100760.11
2023-04-09T01:58:35.239Z,100760.31
2023-04-09T02:01:13.127Z,100761.21
2023-04-09T02:03:55.043Z,100755.91
2023-04-09T02:06:47.566Z,100755.25
2023-04-09T02:09:15.941Z,100747.65
2023-04-09T02:11:44.016Z,100745.90
2023-04-09T02:14:15.995Z,100744.67
2023-04-09T02:16:46.638Z,100744.15
2023-04-09T02:19:14.638Z,100745.41
2023-04-09T02:21:48.444Z,100746.40
2023-04-09T02:24:16.714Z,100743.48
2023-04-09T02:26:44.948Z,100745.08
2023-04-09T02:29:14.144Z,100744.08
2023-04-09T02:31:42.539Z,100744.66
2023-04-09T02:34:10.976Z,100748.46
2023-04-09T02:36:39.130Z,100743.70
2023-04-09T02:39:07.286Z,100743.34
2023-04-09T02:41:37.154Z,100743.34
2023-04-09T02:44:06.146Z,100743.20
2023-04-09T02:46:34.552Z,100744.48
2023-04-09T02:49:02.842Z,100739.58
2023-04-09T02:51:31.606Z,100739.38
2023-04-09T02:54:03.554Z,100742.66
2023-04-09T02:56:32.549Z,100743.05
2023-04-09T02:59:00.970Z,100740.55
2023-04-09T03:01:30.946Z,100739.27
2023-04-09T03:04:00.929Z,100741.70
2023-04-09T03:06:29.653Z,100741.48
2023-04-09T03:08:57.932Z,100742.32
2023-04-09T03:11:26.543Z,100742.71
2023-04-09T03:13:54.794Z,100741.71
2023-04-09T03:16:25.281Z,100742.92
2023-04-09T03:18:53.785Z,100745.38
2023-04-09T03:21:22.807Z,100748.45
2023-04-09T03:23:51.708Z,100750.19
2023-04-09T03:26:20.766Z,100746.23
2023-04-09T03:28:50.526Z,100745.60
2023-04-09T03:31:19.227Z,100744.98
2023-04-09T03:33:47.663Z,100741.70
2023-04-09T03:36:18.498Z,100739.65
2023-04-09T03:38:55.201Z,100741.11
2023-04-09T03:41:35.630Z,100735.79
2023-04-09T03:44:10.457Z,100730.44
2023-04-09T03:47:01.165Z,100726.34
2023-04-09T03:49:29.649Z,100723.96
2023-04-09T03:52:02.474Z,100723.02
2023-04-09T03:54:39.154Z,100726.45
2023-04-09T03:57:12.494Z,100729.54
2023-04-09T03:59:46.401Z,100726.55
2023-04-09T04:02:16.592Z,100725.05
2023-04-09T04:04:47.623Z,100724.98
2023-04-09T04:07:17.169Z,100727.75
2023-04-09T04:09:50.463Z,100728.77
2023-04-09T04:12:25.997Z,100729.50
2023-04-09T04:15:08.635Z,100726.71
2023-04-09T04:17:41.245Z,100725.31
2023-04-09T04:20:17.701Z,100727.73
2023-04-09T04:23:20.098Z,100733.25
2023-04-09T04:26:03.593Z,100732.44
2023-04-09T04:28:40.150Z,100735.02
2023-04-09T04:31:10.818Z,100733.94
2023-04-09T04:33:41.514Z,100730.86
2023-04-09T04:36:14.259Z,100734.95
2023-04-09T04:38:54.262Z,100732.39
2023-04-09T04:41:31.723Z,100733.24
2023-04-09T04:44:16.504Z,100731.08
2023-04-09T04:46:47.048Z,100729.61
2023-04-09T04:49:15.543Z,100731.16
2023-04-09T04:51:49.420Z,100735.86
2023-04-09T04:54:18.004Z,100739.44
2023-04-09T04:56:53.041Z,100741.67
2023-04-09T04:59:38.854Z,100737.96
2023-04-09T05:02:08.398Z,100735.46
2023-04-09T05:04:44.287Z,100735.45
2023-04-09T05:07:17.256Z,100737.80
2023-04-09T05:09:54.255Z,100740.54
2023-04-09T05:12:23.764Z,100738.25
2023-04-09T05:14:58.552Z,100741.02
2023-04-09T05:17:26.838Z,100738.96
2023-04-09T05:19:55.159Z,100739.54
2023-04-09T05:22:28.145Z,100737.95
2023-04-09T05:24:56.227Z,100739.50
2023-04-09T05:27:26.166Z,100742.13
2023-04-09T05:30:00.368Z,100744.54
2023-04-09T05:32:29.946Z,100744.41
2023-04-09T05:34:58.793Z,100748.34
2023-04-09T05:37:27.729Z,100751.07
2023-04-09T05:39:58.948Z,100753.30
2023-04-09T05:42:27.233Z,100758.22
2023-04-09T05:45:07.329Z,100759.53
2023-04-09T05:47:35.468Z,100762.31
2023-04-09T05:50:12.254Z,100761.84
2023-04-09T05:52:43.503Z,100761.95
2023-04-09T05:55:13.475Z,100764.95
2023-04-09T05:57:58.277Z,100767.46
2023-04-09T06:00:34.028Z,100768.75
2023-04-09T06:03:03.729Z,100771.23
2023-04-09T06:05:32.330Z,100767.14
2023-04-09T06:08:02.334Z,100768.34
2023-04-09T06:10:32.951Z,100765.27
2023-04-09T06:13:01.368Z,100767.40
2023-04-09T06:15:35.078Z,100765.34
2023-04-09T06:18:03.246Z,100768.40
2023-04-09T06:20:31.794Z,100776.06
2023-04-09T06:23:09.345Z,100776.36
2023-04-09T06:25:39.148Z,100775.95
2023-04-09T06:28:07.704Z,100775.45
2023-04-09T06:30:37.202Z,100772.97
2023-04-09T06:33:06.336Z,100775.23
2023-04-09T06:35:34.714Z,100772.80
2023-04-09T06:38:07.009Z,100772.14
2023-04-09T06:40:38.157Z,100770.35
2023-04-09T06:43:09.750Z,100770.83
2023-04-09T06:45:47.655Z,100768.56
2023-04-09T06:48:16.723Z,100764.70
2023-04-09T06:50:46.052Z,100760.65
2023-04-09T06:53:16.202Z,100761.27
2023-04-09T06:55:44.382Z,100757.79
2023-04-09T06:58:13.303Z,100760.75
2023-04-09T07:00:42.050Z,100761.29
2023-04-09T07:03:15.038Z,100761.85
2023-04-09T07:05:43.437Z,100763.44
2023-04-09T07:08:12.073Z,100764.88
2023-04-09T07:10:42.401Z,100761.59
2023-04-09T07:13:12.928Z,100761.09
2023-04-09T07:15:42.583Z,100762.70
2023-04-09T07:18:11.836Z,100763.61
2023-04-09T07:20:43.288Z,100766.12
2023-04-09T07:23:12.308Z,100767.39
2023-04-09T07:25:42.441Z,100769.67
2023-04-09T07:28:11.783Z,100767.20
2023-04-09T07:30:40.078Z,100768.80
2023-04-09T07:33:08.259Z,100767.66
2023-04-09T07:35:38.685Z,100763.00
2023-04-09T07:38:07.317Z,100757.91
2023-04-09T07:40:36.978Z,100758.03
2023-04-09T07:43:06.016Z,100760.51
2023-04-09T07:45:34.358Z,100761.95
2023-04-09T07:48:03.494Z,100762.71
2023-04-09T07:50:32.963Z,100761.77
2023-04-09T07:53:01.432Z,100760.58
2023-04-09T07:55:29.806Z,100763.12
2023-04-09T07:57:58.309Z,100760.77
2023-04-09T08:00:33.042Z,100759.55
2023-04-09T08:03:04.310Z,100755.51
2023-04-09T08:05:32.785Z,100754.89
2023-04-09T08:08:06.446Z,100755.93
2023-04-09T08:10:34.622Z,100759.52
2023-04-09T08:13:03.002Z,100758.45
2023-04-09T08:15:38.204Z,100762.51
2023-04-09T08:18:07.563Z,100763.48
2023-04-09T08:20:36.299Z,100758.93
2023-04-09T08:23:13.599Z,100756.60
2023-04-09T08:25:42.932Z,100758.09
2023-04-09T08:28:11.060Z,100754.52
2023-04-09T08:30:41.002Z,100753.36
2023-04-09T08:33:09.779Z,100747.11
2023-04-09T08:35:40.519Z,100750.16
2023-04-09T08:38:09.054Z,100753.66
2023-04-09T08:40:37.566Z,100752.91
2023-04-09T08:43:09.385Z,100752.09
2023-04-09T08:45:41.675Z,100747.52
2023-04-09T08:48:10.386Z,100749.71
2023-04-09T08:50:39.873Z,100747.94
2023-04-09T08:53:08.458Z,100750.02
2023-04-09T08:55:37.906Z,100746.88
2023-04-09T08:58:10.814Z,100750.69
2023-04-09T09:00:43.176Z,100750.01
2023-04-09T09:03:16.009Z,100756.85
2023-04-09T09:05:45.696Z,100758.17
2023-04-09T09:08:23.184Z,100756.73
2023-04-09T09:10:51.664Z,100762.60
2023-04-09T09:13:19.744Z,100770.02
2023-04-09T09:15:50.562Z,100773.80
2023-04-09T09:18:37.570Z,100769.69
2023-04-09T09:21:12.061Z,100764.08
2023-04-09T09:23:42.777Z,100767.67
2023-04-09T09:26:21.772Z,100769.03
2023-04-09T09:28:50.730Z,100768.08
2023-04-09T09:31:21.222Z,100766.34
2023-04-09T09:33:50.563Z,100764.67
2023-04-09T09:36:34.726Z,100763.16
2023-04-09T09:39:05.394Z,100761.06
2023-04-09T09:41:36.815Z,100763.36
2023-04-09T09:44:07.218Z,100763.09
2023-04-09T09:46:38.464Z,100759.29
2023-04-09T09:49:07.424Z,100762.23
2023-04-09T09:51:40.129Z,100762.75
2023-04-09T09:54:10.231Z,100764.25
2023-04-09T09:56:39.544Z,100763.80
2023-04-09T09:59:17.590Z,100764.98
2023-04-09T10:01:46.334Z,100764.59
2023-04-09T10:04:15.903Z,100761.56
2023-04-09T10:06:45.031Z,100762.39
2023-04-09T10:09:13.335Z,100765.15
2023-04-09T10:11:45.729Z,100765.40
2023-04-09T10:14:18.242Z,100769.55
2023-04-09T10:16:46.651Z,100770.45
2023-04-09T10:19:15.325Z,100766.39
2023-04-09T10:21:48.758Z,100767.94
2023-04-09T10:24:20.156Z,100769.93
2023-04-09T10:26:48.983Z,100766.42
2023-04-09T10:29:17.145Z,100766.17
2023-04-09T10:31:53.136Z,100765.81
2023-04-09T10:34:24.760Z,100762.77
2023-04-09T10:36:55.825Z,100761.91
2023-04-09T10:39:29.890Z,100761.20
2023-04-09T10:41:58.764Z,100760.84
2023-04-09T10:44:38.163Z,100755.70
2023-04-09T10:47:32.489Z,100757.79
2023-04-09T10:50:20.179Z,100756.20
2023-04-09T10:52:52.987Z,100757.45
2023-04-09T10:55:36.295Z,100759.51
2023-04-09T10:58:13.270Z,100758.42
2023-04-09T11:00:46.503Z,100764.20
2023-04-09T11:03:22.378Z,100763.23
2023-04-09T11:06:06.172Z,100762.62
2023-04-09T11:08:39.279Z,100761.25
2023-04-09T11:11:07.698Z,100760.11
2023-04-09T11:13:41.776Z,100754.48
2023-04-09T11:16:12.990Z,100751.83
2023-04-09T11:19:02.969Z,100751.14
2023-04-09T11:21:48.438Z,100746.55
2023-04-09T11:24:18.916Z,100746.52
2023-04-09T11:26:52.008Z,100747.32
2023-04-09T11:29:37.062Z,100744.62
2023-04-09T11:32:05.626Z,100740.48
2023-04-09T11:34:53.459Z,100737.91
2023-04-09T11:37:28.863Z,100735.66
2023-04-09T11:39:58.430Z,100732.96
2023-04-09T11:42:31.686Z,100732.19
2023-04-09T11:45:07.247Z,100726.98
2023-04-09T11:47:51.293Z,100724.19
2023-04-09T11:50:23.273Z,100718.58
2023-04-09T11:52:52.502Z,100714.65
2023-04-09T11:55:31.092Z,100713.80
2023-04-09T11:58:11.779Z,100714.00
2023-04-09T12:00:45.438Z,100711.67
2023-04-09T12:03:31.029Z,100710.04
2023-04-09T12:06:02.978Z,100712.29
2023-04-09T12:08:35.981Z,100714.31
2023-04-09T12:11:12.841Z,100714.30
2023-04-09T12:13:44.714Z,100711.77
2023-04-09T12:16:14.435Z,100709.83
2023-04-09T12:19:09.222Z,100708.93
2023-04-09T12:21:58.529Z,100705.77
2023-04-09T12:24:28.243Z,100705.70
2023-04-09T12:27:07.663Z,100702.70
2023-04-09T12:29:36.229Z,100700.27
2023-04-09T12:32:05.056Z,100698.95
2023-04-09T12:34:36.182Z,100695.41
2023-04-09T12:37:04.972Z,100698.20
2023-04-09T12:39:34.453Z,100698.13
2023-04-09T12:42:04.492Z,100696.63
2023-04-09T12:44:37.357Z,100695.47
2023-04-09T12:47:05.380Z,100694.62
2023-04-09T12:49:33.421Z,100693.53
2023-04-09T12:52:01.664Z,100687.80
2023-04-09T12:54:31.619Z,100682.08
2023-04-09T12:57:01.548Z,100679.92
2023-04-09T12:59:32.007Z,100680.47
2023-04-09T13:02:02.330Z,100677.87
2023-04-09T13:04:31.523Z,100680.31
2023-04-09T13:07:03.064Z,100679.10
2023-04-09T13:09:31.678Z,100681.14
2023-04-09T13:12:13.114Z,100680.95
2023-04-09T13:14:44.613Z,100679.70
2023-04-09T13:17:15.597Z,100683.30
2023-04-09T13:19:44.287Z,100680.29
2023-04-09T13:22:12.652Z,100680.98
2023-04-09T13:24:43.376Z,100679.71
2023-04-09T13:27:14.455Z,100673.95
2023-04-09T13:29:45.732Z,100672.52
2023-04-09T13:32:14.507Z,100667.91
2023-04-09T13:34:55.898Z,100667.41
2023-04-09T13:37:26.222Z,100658.52
2023-04-09T13:39:54.287Z,100653.92
2023-04-09T13:42:22.800Z,100653.63
2023-04-09T13:44:51.399Z,100652.77
2023-04-09T13:47:24.171Z,100656.69
2023-04-09T13:49:53.383Z,100658.73
2023-04-09T13:52:21.471Z,100657.59
2023-04-09T13:54:50.658Z,100656.70
2023-04-09T13:57:18.650Z,100657.09
2023-04-09T13:59:47.517Z,100657.71
2023-04-09T14:02:18.227Z,100656.45
2023-04-09T14:04:46.529Z,100656.16
2023-04-09T14:07:14.910Z,100655.34
2023-04-09T14:09:45.943Z,100658.52
2023-04-09T14:12:14.673Z,100660.33
2023-04-09T14:14:43.859Z,100659.98
2023-04-09T14:17:11.815Z,100664.36
2023-04-09T14:19:40.507Z,100666.10
2023-04-09T14:22:18.515Z,100674.34
2023-04-09T14:24:46.509Z,100677.09
2023-04-09T14:27:14.942Z,100673.36
2023-04-09T14:29:46.479Z,100673.87
2023-04-09T14:32:23.695Z,100673.91
2023-04-09T14:35:07.952Z,100676.16
2023-04-09T14:37:42.211Z,100675.36
2023-04-09T14:40:13.149Z,100675.09
2023-04-09T14:42:45.654Z,100677.83
2023-04-09T14:45:24.414Z,100681.43
2023-04-09T14:47:52.501Z,100679.73
2023-04-09T14:50:25.831Z,100680.14
2023-04-09T14:52:56.907Z,100676.55
2023-04-09T14:55:44.825Z,100676.52
2023-04-09T14:58:19.888Z,100673.66
2023-04-09T15:00:59.389Z,100676.03
2023-04-09T15:03:31.804Z,100673.94
2023-04-09T15:06:12.644Z,100673.17
2023-04-09T15:08:40.722Z,100674.75
2023-04-09T15:11:23.119Z,100671.86
2023-04-09T15:13:57.930Z,100668.10
2023-04-09T15:16:28.104Z,100662.73
2023-04-09T15:19:05.407Z,100661.27
2023-04-09T15:21:38.156Z,100659.92
2023-04-09T15:24:08.182Z,100661.02
2023-04-09T15:26:39.155Z,100658.23
2023-04-09T15:29:15.537Z,100658.46
2023-04-09T15:31:56.433Z,100659.91
2023-04-09T15:34:32.738Z,100657.61
2023-04-09T15:37:03.512Z,100657.09
2023-04-09T15:39:32.660Z,100658.64
2023-04-09T15:42:02.244Z,100658.89
2023-04-09T15:44:31.606Z,100655.35
2023-04-09T15:47:10.886Z,100654.97
2023-04-09T15:49:43.008Z,100656.98
2023-04-09T15:52:13.685Z,100653.46
2023-04-09T15:54:41.668Z,100652.22
2023-04-09T15:57:12.436Z,100651.95
2023-04-09T15:59:44.118Z,100656.19
2023-04-09T16:02:15.764Z,100655.73
2023-04-09T16:04:47.359Z,100652.77
2023-04-09T16:07:18.676Z,100655.02
2023-04-09T16:09:54.564Z,100658.75
2023-04-09T16:12:26.097Z,100655.04
2023-04-09T16:15:08.004Z,100657.32
2023-04-09T16:17:40.938Z,100655.66
2023-04-09T16:20:11.598Z,100656.17
2023-04-09T16:22:45.386Z,100659.73
2023-04-09T16:25:14.415Z,100663.42
2023-04-09T16:27:43.572Z,100668.56
2023-04-09T16:30:12.567Z,100670.01
2023-04-09T16:32:46.992Z,100668.54
2023-04-09T16:35:15.504Z,100668.65
2023-04-09T16:37:51.857Z,100668.58
2023-04-09T16:40:24.414Z,100667.40
2023-04-09T16:42:56.873Z,100669.64
2023-04-09T16:45:24.896Z,100668.82
2023-04-09T16:48:13.479Z,100668.83
2023-04-09T16:50:42.953Z,100668.92
2023-04-09T16:53:14.569Z,100669.27
2023-04-09T16:55:45.033Z,100669.74
2023-04-09T16:58:12.998Z,100671.52
2023-04-09T17:00:44.146Z,100675.42
2023-04-09T17:03:14.312Z,100675.33
2023-04-09T17:05:42.377Z,100681.84
2023-04-09T17:08:11.088Z,100685.27
2023-04-09T17:10:44.254Z,100685.92
2023-04-09T17:13:16.406Z,100686.46
2023-04-09T17:15:44.709Z,100690.75
2023-04-09T17:18:32.690Z,100689.59
2023-04-09T17:21:01.519Z,100693.30
2023-04-09T17:23:34.217Z,100695.18
2023-04-09T17:26:02.555Z,100698.59
2023-04-09T17:28:34.027Z,100700.55
2023-04-09T17:31:02.462Z,100706.33
2023-04-09T17:33:50.455Z,100706.61
2023-04-09T17:36:19.905Z,100712.39
2023-04-09T17:38:53.148Z,100713.63
2023-04-09T17:41:21.300Z,100716.48
2023-04-09T17:43:53.715Z,100720.66
2023-04-09T17:46:23.888Z,100721.95
2023-04-09T17:48:55.331Z,100725.94
2023-04-09T17:51:30.291Z,100728.20
2023-04-09T17:54:04.800Z,100733.61
2023-04-09T17:56:39.001Z,100734.29
2023-04-09T17:59:12.142Z,100734.05
2023-04-09T18:02:00.978Z,100738.64
2023-04-09T18:04:29.592Z,100741.25
2023-04-09T18:06:57.969Z,100739.91
2023-04-09T18:09:26.238Z,100740.31
2023-04-09T18:11:56.549Z,100742.15
2023-04-09T18:14:32.652Z,100741.55
2023-04-09T18:17:04.841Z,100743.87
2023-04-09T18:19:32.932Z,100746.38
2023-04-09T18:22:01.342Z,100749.73
2023-04-09T18:24:35.247Z,100749.31
2023-04-09T18:27:03.874Z,100748.01
2023-04-09T18:29:36.723Z,100745.83
2023-04-09T18:32:05.012Z,100745.43
2023-04-09T18:34:36.567Z,100746.56
2023-04-09T18:37:04.981Z,100744.05
2023-04-09T18:39:40.326Z,100739.43
2023-04-09T18:42:10.162Z,100742.08
2023-04-09T18:44:40.751Z,100745.41
2023-04-09T18:47:12.753Z,100739.67
2023-04-09T18:49:41.527Z,100742.81
2023-04-09T18:52:13.297Z,100743.98
2023-04-09T18:54:49.349Z,100742.04
2023-04-09T18:57:17.774Z,100743.00
2023-04-09T18:59:46.827Z,100739.52
2023-04-09T19:02:15.502Z,100741.25
2023-04-09T19:04:45.103Z,100742.15
2023-04-09T19:07:13.624Z,100741.86
2023-04-09T19:09:42.161Z,100741.19
2023-04-09T19:12:10.999Z,100741.30
2023-04-09T19:14:40.684Z,100740.09
2023-04-09T19:17:10.541Z,100738.05
2023-04-09T19:19:38.869Z,100741.02
2023-04-09T19:22:08.276Z,100739.06
2023-04-09T19:24:41.362Z,100739.41
2023-04-09T19:27:11.875Z,100737.98
2023-04-09T19:29:40.462Z,100741.50
2023-04-09T19:32:13.531Z,100741.95
2023-04-09T19:34:45.003Z,100739.88
2023-04-09T19:37:15.218Z,100739.70
2023-04-09T19:39:43.723Z,100739.67
2023-04-09T19:42:12.190Z,100739.14
2023-04-09T19:44:41.802Z,100741.09
2023-04-09T19:47:10.516Z,100742.08
2023-04-09T19:49:39.491Z,100740.02
2023-04-09T19:52:08.762Z,100740.48
2023-04-09T19:54:37.660Z,100737.55
2023-04-09T19:57:12.809Z,100735.81
2023-04-09T19:59:43.244Z,100737.77
2023-04-09T20:02:15.616Z,100735.91
2023-04-09T20:04:43.967Z,100734.96
2023-04-09T20:07:12.343Z,100732.93
2023-04-09T20:09:43.679Z,100731.96
2023-04-09T20:12:14.122Z,100734.02
2023-04-09T20:14:43.391Z,100733.81
2023-04-09T20:17:20.387Z,100737.30
2023-04-09T20:19:58.464Z,100735.70
2023-04-09T20:22:33.650Z,100735.39
2023-04-09T20:25:04.914Z,100735.30
2023-04-09T20:27:33.662Z,100733.74
2023-04-09T20:30:03.308Z,100734.66
2023-04-09T20:32:37.950Z,100733.84
2023-04-09T20:35:08.242Z,100731.71
2023-04-09T20:37:36.879Z,100731.52
2023-04-09T20:40:06.822Z,100729.46
2023-04-09T20:47:09.824Z,100735.02
2023-04-09T20:49:37.958Z,100732.24
2023-04-09T20:52:09.235Z,100732.33
2023-04-09T20:54:39.247Z,100731.82
2023-04-09T20:57:07.248Z,100731.14
2023-04-09T20:59:36.317Z,100726.90
2023-04-09T21:02:04.778Z,100725.85
2023-04-09T21:04:32.996Z,100724.67
2023-04-09T21:07:01.256Z,100722.86
2023-04-09T21:09:29.724Z,100725.19
2023-04-09T21:12:04.902Z,100719.98
2023-04-09T21:14:34.471Z,100720.62
2023-04-09T21:17:02.548Z,100719.55
2023-04-09T21:19:30.799Z,100720.70
2023-04-09T21:21:58.854Z,100722.02
2023-04-09T21:24:27.884Z,100721.21
2023-04-09T21:26:55.933Z,100719.41
2023-04-09T21:29:25.428Z,100718.80
2023-04-09T21:31:54.047Z,100718.52
2023-04-09T21:34:22.159Z,100717.17
2023-04-09T21:36:51.320Z,100717.83
2023-04-09T21:39:19.789Z,100720.91
2023-04-09T21:41:47.891Z,100723.30
2023-04-09T21:44:16.818Z,100719.27
2023-04-09T21:51:18.544Z,100725.08
2023-04-09T21:53:47.597Z,100723.79
2023-04-09T21:56:16.022Z,100724.42
2023-04-09T21:58:43.998Z,100727.19
2023-04-09T22:01:22.618Z,100727.00
2023-04-09T22:08:34.054Z,100720.96
2023-04-09T22:11:03.313Z,100720.67
2023-04-09T22:13:31.838Z,100718.86
2023-04-09T22:16:01.103Z,100718.67
2023-04-09T22:18:29.920Z,100721.83
2023-04-09T22:21:17.040Z,100720.98
2023-04-09T22:23:45.417Z,100721.09
2023-04-09T22:26:13.760Z,100721.02
2023-04-09T22:28:42.997Z,100721.48
2023-04-09T22:31:11.079Z,100721.88
2023-04-09T22:33:39.612Z,100723.85
2023-04-09T22:36:08.270Z,100720.15
2023-04-09T22:38:36.385Z,100720.55
2023-04-09T22:45:54.533Z,100719.19
2023-04-09T22:48:23.283Z,100718.95
2023-04-09T22:50:51.343Z,100719.14
2023-04-09T22:53:20.809Z,100718.53
2023-04-09T22:55:54.601Z,100717.71
2023-04-09T22:58:22.572Z,100718.91
2023-04-09T23:00:50.990Z,100716.79
2023-04-09T23:03:19.031Z,100716.04
2023-04-09T23:05:47.185Z,100712.39
2023-04-09T23:08:15.332Z,100709.37
2023-04-09T23:10:51.576Z,100709.71
2023-04-09T23:13:19.740Z,100704.10
2023-04-09T23:15:48.451Z,100702.03
2023-04-09T23:18:16.695Z,100698.92
2023-04-09T23:20:44.618Z,100699.16
2023-04-09T23:23:13.676Z,100700.79
2023-04-09T23:25:45.297Z,100702.70
2023-04-09T23:28:13.228Z,100705.53
2023-04-09T23:30:41.510Z,100701.94
2023-04-09T23:33:09.839Z,100704.31
2023-04-09T23:35:38.179Z,100707.12
2023-04-09T23:38:11.077Z,100706.14
2023-04-09T23:40:40.581Z,100705.31
2023-04-09T23:43:08.956Z,100705.52
2023-04-09T23:50:28.743Z,100706.97
2023-04-09T23:53:03.402Z,100707.80
2023-04-09T23:55:33.358Z,100707.50
2023-04-09T23:58:02.093Z,100710.07
